sensor_id;sensor_type;location;lat;lon;timestamp;P1;durP1;ratioP1;P2;durP2;ratioP2
12861;SDS011;6499;66.348;14.134;2023-12-22T00:00:10;0.30;;;0.30;;
12861;SDS011;6499;66.348;14.134;2023-12-22T00:02:51;0.30;;;0.30;;
12861;SDS011;6499;66.348;14.134;2023-12-22T00:05:17;0.20;;;0.20;;
12861;SDS011;6499;66.348;14.134;2023-12-22T00:07:45;0.70;;;0.40;;
12861;SDS011;6499;66.348;14.134;2023-12-22T00:10:12;0.20;;;0.20;;
12861;SDS011;6499;66.348;14.134;2023-12-22T00:12:39;0.30;;;0.20;;
12861;SDS011;6499;66.348;14.134;2023-12-22T00:15:06;0.30;;;0.30;;
12861;SDS011;6499;66.348;14.134;2023-12-22T00:17:35;0.23;;;0.23;;
12861;SDS011;6499;66.348;14.134;2023-12-22T00:20:01;1.33;;;0.27;;
12861;SDS011;6499;66.348;14.134;2023-12-22T00:22:28;0.20;;;0.20;;
12861;SDS011;6499;66.348;14.134;2023-12-22T00:24:56;0.50;;;0.20;;
12861;SDS011;6499;66.348;14.134;2023-12-22T00:27:23;0.20;;;0.20;;
12861;SDS011;6499;66.348;14.134;2023-12-22T00:29:49;0.83;;;0.40;;
12861;SDS011;6499;66.348;14.134;2023-12-22T00:32:19;0.20;;;0.20;;
12861;SDS011;6499;66.348;14.134;2023-12-22T00:34:46;0.20;;;0.20;;
12861;SDS011;6499;66.348;14.134;2023-12-22T00:37:30;0.23;;;0.23;;
12861;SDS011;6499;66.348;14.134;2023-12-22T00:39:58;0.30;;;0.30;;
12861;SDS011;6499;66.348;14.134;2023-12-22T00:42:24;0.20;;;0.20;;
12861;SDS011;6499;66.348;14.134;2023-12-22T00:45:03;0.20;;;0.20;;
12861;SDS011;6499;66.348;14.134;2023-12-22T00:47:29;0.33;;;0.30;;
12861;SDS011;6499;66.348;14.134;2023-12-22T00:49:56;0.20;;;0.20;;
12861;SDS011;6499;66.348;14.134;2023-12-22T00:52:23;0.23;;;0.23;;
12861;SDS011;6499;66.348;14.134;2023-12-22T00:54:49;0.30;;;0.30;;
12861;SDS011;6499;66.348;14.134;2023-12-22T00:57:26;0.27;;;0.23;;
12861;SDS011;6499;66.348;14.134;2023-12-22T00:59:53;0.30;;;0.30;;
12861;SDS011;6499;66.348;14.134;2023-12-22T01:02:20;0.20;;;0.20;;
12861;SDS011;6499;66.348;14.134;2023-12-22T01:04:46;0.37;;;0.20;;
12861;SDS011;6499;66.348;14.134;2023-12-22T01:07:13;0.27;;;0.27;;
12861;SDS011;6499;66.348;14.134;2023-12-22T01:09:43;0.20;;;0.20;;
12861;SDS011;6499;66.348;14.134;2023-12-22T01:12:17;0.20;;;0.20;;
12861;SDS011;6499;66.348;14.134;2023-12-22T01:14:45;0.23;;;0.23;;
12861;SDS011;6499;66.348;14.134;2023-12-22T01:17:14;0.20;;;0.20;;
12861;SDS011;6499;66.348;14.134;2023-12-22T01:19:41;0.20;;;0.20;;
12861;SDS011;6499;66.348;14.134;2023-12-22T01:22:08;0.20;;;0.20;;
12861;SDS011;6499;66.348;14.134;2023-12-22T01:24:34;0.40;;;0.40;;
12861;SDS011;6499;66.348;14.134;2023-12-22T01:27:04;0.30;;;0.30;;
12861;SDS011;6499;66.348;14.134;2023-12-22T01:29:31;0.20;;;0.20;;
12861;SDS011;6499;66.348;14.134;2023-12-22T01:31:59;0.63;;;0.20;;
12861;SDS011;6499;66.348;14.134;2023-12-22T01:34:34;0.20;;;0.20;;
12861;SDS011;6499;66.348;14.134;2023-12-22T01:37:01;0.23;;;0.20;;
12861;SDS011;6499;66.348;14.134;2023-12-22T01:39:27;0.30;;;0.30;;
12861;SDS011;6499;66.348;14.134;2023-12-22T01:41:54;0.23;;;0.23;;
12861;SDS011;6499;66.348;14.134;2023-12-22T01:44:21;0.20;;;0.20;;
12861;SDS011;6499;66.348;14.134;2023-12-22T01:46:47;0.30;;;0.30;;
12861;SDS011;6499;66.348;14.134;2023-12-22T01:49:16;0.20;;;0.20;;
12861;SDS011;6499;66.348;14.134;2023-12-22T01:51:43;0.27;;;0.27;;
12861;SDS011;6499;66.348;14.134;2023-12-22T01:54:10;0.23;;;0.23;;
12861;SDS011;6499;66.348;14.134;2023-12-22T01:56:39;0.23;;;0.23;;
12861;SDS011;6499;66.348;14.134;2023-12-22T01:59:06;0.50;;;0.30;;
12861;SDS011;6499;66.348;14.134;2023-12-22T02:01:33;0.60;;;0.20;;
12861;SDS011;6499;66.348;14.134;2023-12-22T02:04:06;0.20;;;0.20;;
12861;SDS011;6499;66.348;14.134;2023-12-22T02:06:34;0.20;;;0.20;;
12861;SDS011;6499;66.348;14.134;2023-12-22T02:09:02;0.37;;;0.37;;
12861;SDS011;6499;66.348;14.134;2023-12-22T02:11:29;0.20;;;0.20;;
12861;SDS011;6499;66.348;14.134;2023-12-22T02:13:57;0.20;;;0.20;;
12861;SDS011;6499;66.348;14.134;2023-12-22T02:16:26;0.33;;;0.20;;
12861;SDS011;6499;66.348;14.134;2023-12-22T02:18:56;0.20;;;0.20;;
12861;SDS011;6499;66.348;14.134;2023-12-22T02:21:25;0.30;;;0.20;;
12861;SDS011;6499;66.348;14.134;2023-12-22T02:23:53;0.60;;;0.30;;
12861;SDS011;6499;66.348;14.134;2023-12-22T02:26:22;0.23;;;0.20;;
12861;SDS011;6499;66.348;14.134;2023-12-22T02:28:50;0.20;;;0.20;;
12861;SDS011;6499;66.348;14.134;2023-12-22T02:31:18;0.43;;;0.20;;
12861;SDS011;6499;66.348;14.134;2023-12-22T02:33:49;0.20;;;0.20;;
12861;SDS011;6499;66.348;14.134;2023-12-22T02:36:17;0.23;;;0.20;;
12861;SDS011;6499;66.348;14.134;2023-12-22T02:38:44;0.17;;;0.17;;
12861;SDS011;6499;66.348;14.134;2023-12-22T02:41:13;0.30;;;0.30;;
12861;SDS011;6499;66.348;14.134;2023-12-22T02:43:41;0.30;;;0.30;;
12861;SDS011;6499;66.348;14.134;2023-12-22T02:46:12;0.23;;;0.23;;
12861;SDS011;6499;66.348;14.134;2023-12-22T02:48:39;0.37;;;0.23;;
12861;SDS011;6499;66.348;14.134;2023-12-22T02:51:05;0.30;;;0.30;;
12861;SDS011;6499;66.348;14.134;2023-12-22T02:53:32;0.33;;;0.33;;
12861;SDS011;6499;66.348;14.134;2023-12-22T02:55:59;0.30;;;0.30;;
12861;SDS011;6499;66.348;14.134;2023-12-22T02:58:35;0.20;;;0.20;;
12861;SDS011;6499;66.348;14.134;2023-12-22T03:01:01;0.30;;;0.30;;
12861;SDS011;6499;66.348;14.134;2023-12-22T03:03:35;0.40;;;0.40;;
12861;SDS011;6499;66.348;14.134;2023-12-22T03:06:02;1.20;;;0.40;;
12861;SDS011;6499;66.348;14.134;2023-12-22T03:08:28;0.57;;;0.40;;
12861;SDS011;6499;66.348;14.134;2023-12-22T03:10:55;0.50;;;0.40;;
12861;SDS011;6499;66.348;14.134;2023-12-22T03:13:21;0.40;;;0.40;;
12861;SDS011;6499;66.348;14.134;2023-12-22T03:15:49;0.40;;;0.40;;
12861;SDS011;6499;66.348;14.134;2023-12-22T03:18:16;0.40;;;0.40;;
12861;SDS011;6499;66.348;14.134;2023-12-22T03:20:42;0.30;;;0.30;;
12861;SDS011;6499;66.348;14.134;2023-12-22T03:23:09;0.67;;;0.40;;
12861;SDS011;6499;66.348;14.134;2023-12-22T03:25:36;0.73;;;0.43;;
12861;SDS011;6499;66.348;14.134;2023-12-22T03:28:02;0.40;;;0.30;;
12861;SDS011;6499;66.348;14.134;2023-12-22T03:30:29;0.40;;;0.40;;
12861;SDS011;6499;66.348;14.134;2023-12-22T03:33:12;0.30;;;0.30;;
12861;SDS011;6499;66.348;14.134;2023-12-22T03:35:39;0.40;;;0.40;;
12861;SDS011;6499;66.348;14.134;2023-12-22T03:38:06;0.50;;;0.40;;
12861;SDS011;6499;66.348;14.134;2023-12-22T03:40:35;0.30;;;0.30;;
12861;SDS011;6499;66.348;14.134;2023-12-22T03:43:04;0.97;;;0.40;;
12861;SDS011;6499;66.348;14.134;2023-12-22T03:45:38;0.50;;;0.50;;
12861;SDS011;6499;66.348;14.134;2023-12-22T03:48:05;0.70;;;0.30;;
12861;SDS011;6499;66.348;14.134;2023-12-22T03:50:42;0.50;;;0.40;;
12861;SDS011;6499;66.348;14.134;2023-12-22T03:53:09;0.70;;;0.40;;
12861;SDS011;6499;66.348;14.134;2023-12-22T03:55:35;0.40;;;0.40;;
12861;SDS011;6499;66.348;14.134;2023-12-22T03:58:05;0.30;;;0.30;;
12861;SDS011;6499;66.348;14.134;2023-12-22T04:00:36;1.23;;;0.50;;
12861;SDS011;6499;66.348;14.134;2023-12-22T04:03:03;0.57;;;0.40;;
12861;SDS011;6499;66.348;14.134;2023-12-22T04:05:30;0.40;;;0.40;;
12861;SDS011;6499;66.348;14.134;2023-12-22T04:07:58;0.30;;;0.30;;
12861;SDS011;6499;66.348;14.134;2023-12-22T04:10:24;0.30;;;0.30;;
12861;SDS011;6499;66.348;14.134;2023-12-22T04:12:51;0.30;;;0.30;;
12861;SDS011;6499;66.348;14.134;2023-12-22T04:15:17;0.37;;;0.30;;
12861;SDS011;6499;66.348;14.134;2023-12-22T04:17:44;0.40;;;0.40;;
12861;SDS011;6499;66.348;14.134;2023-12-22T04:20:11;0.47;;;0.47;;
12861;SDS011;6499;66.348;14.134;2023-12-22T04:22:39;1.27;;;0.47;;
12861;SDS011;6499;66.348;14.134;2023-12-22T04:25:10;0.63;;;0.30;;
12861;SDS011;6499;66.348;14.134;2023-12-22T04:27:41;0.50;;;0.40;;
12861;SDS011;6499;66.348;14.134;2023-12-22T04:30:11;0.30;;;0.30;;
12861;SDS011;6499;66.348;14.134;2023-12-22T04:32:43;0.30;;;0.30;;
12861;SDS011;6499;66.348;14.134;2023-12-22T04:35:09;0.83;;;0.40;;
12861;SDS011;6499;66.348;14.134;2023-12-22T04:37:48;0.40;;;0.40;;
12861;SDS011;6499;66.348;14.134;2023-12-22T04:40:16;0.37;;;0.30;;
12861;SDS011;6499;66.348;14.134;2023-12-22T04:42:46;0.40;;;0.40;;
12861;SDS011;6499;66.348;14.134;2023-12-22T04:45:13;0.40;;;0.40;;
12861;SDS011;6499;66.348;14.134;2023-12-22T04:47:51;0.40;;;0.40;;
12861;SDS011;6499;66.348;14.134;2023-12-22T04:50:18;0.63;;;0.60;;
12861;SDS011;6499;66.348;14.134;2023-12-22T04:52:47;0.40;;;0.33;;
12861;SDS011;6499;66.348;14.134;2023-12-22T04:55:18;0.43;;;0.43;;
12861;SDS011;6499;66.348;14.134;2023-12-22T04:57:46;0.30;;;0.30;;
12861;SDS011;6499;66.348;14.134;2023-12-22T05:00:18;0.40;;;0.40;;
12861;SDS011;6499;66.348;14.134;2023-12-22T05:02:48;0.40;;;0.40;;
12861;SDS011;6499;66.348;14.134;2023-12-22T05:05:22;0.40;;;0.40;;
12861;SDS011;6499;66.348;14.134;2023-12-22T05:07:48;0.40;;;0.40;;
12861;SDS011;6499;66.348;14.134;2023-12-22T05:10:15;0.40;;;0.40;;
12861;SDS011;6499;66.348;14.134;2023-12-22T05:12:43;0.30;;;0.30;;
12861;SDS011;6499;66.348;14.134;2023-12-22T05:15:12;0.70;;;0.43;;
12861;SDS011;6499;66.348;14.134;2023-12-22T05:17:39;0.40;;;0.40;;
12861;SDS011;6499;66.348;14.134;2023-12-22T05:20:07;1.20;;;0.50;;
12861;SDS011;6499;66.348;14.134;2023-12-22T05:22:34;0.30;;;0.30;;
12861;SDS011;6499;66.348;14.134;2023-12-22T05:25:01;0.53;;;0.53;;
12861;SDS011;6499;66.348;14.134;2023-12-22T05:27:27;0.40;;;0.30;;
12861;SDS011;6499;66.348;14.134;2023-12-22T05:29:55;0.60;;;0.40;;
12861;SDS011;6499;66.348;14.134;2023-12-22T05:32:26;0.40;;;0.40;;
12861;SDS011;6499;66.348;14.134;2023-12-22T05:34:52;0.40;;;0.30;;
12861;SDS011;6499;66.348;14.134;2023-12-22T05:37:19;0.63;;;0.60;;
12861;SDS011;6499;66.348;14.134;2023-12-22T05:39:46;0.90;;;0.60;;
12861;SDS011;6499;66.348;14.134;2023-12-22T05:42:12;0.37;;;0.37;;
12861;SDS011;6499;66.348;14.134;2023-12-22T05:44:41;0.97;;;0.40;;
12861;SDS011;6499;66.348;14.134;2023-12-22T05:47:09;0.80;;;0.50;;
12861;SDS011;6499;66.348;14.134;2023-12-22T05:49:36;0.23;;;0.20;;
12861;SDS011;6499;66.348;14.134;2023-12-22T05:52:09;0.40;;;0.40;;
12861;SDS011;6499;66.348;14.134;2023-12-22T05:54:37;0.60;;;0.50;;
12861;SDS011;6499;66.348;14.134;2023-12-22T05:57:17;0.43;;;0.43;;
12861;SDS011;6499;66.348;14.134;2023-12-22T05:59:43;0.50;;;0.50;;
12861;SDS011;6499;66.348;14.134;2023-12-22T06:02:11;0.50;;;0.47;;
12861;SDS011;6499;66.348;14.134;2023-12-22T06:04:38;0.37;;;0.30;;
12861;SDS011;6499;66.348;14.134;2023-12-22T06:07:05;0.80;;;0.50;;
12861;SDS011;6499;66.348;14.134;2023-12-22T06:09:31;0.43;;;0.43;;
12861;SDS011;6499;66.348;14.134;2023-12-22T06:11:58;0.37;;;0.37;;
12861;SDS011;6499;66.348;14.134;2023-12-22T06:14:34;0.40;;;0.40;;
12861;SDS011;6499;66.348;14.134;2023-12-22T06:17:01;0.40;;;0.40;;
12861;SDS011;6499;66.348;14.134;2023-12-22T06:19:35;0.40;;;0.40;;
12861;SDS011;6499;66.348;14.134;2023-12-22T06:22:03;0.40;;;0.40;;
12861;SDS011;6499;66.348;14.134;2023-12-22T06:24:29;0.40;;;0.40;;
12861;SDS011;6499;66.348;14.134;2023-12-22T06:26:59;0.50;;;0.50;;
12861;SDS011;6499;66.348;14.134;2023-12-22T06:29:28;0.57;;;0.50;;
12861;SDS011;6499;66.348;14.134;2023-12-22T06:31:56;0.30;;;0.30;;
12861;SDS011;6499;66.348;14.134;2023-12-22T06:34:22;2.27;;;1.43;;
12861;SDS011;6499;66.348;14.134;2023-12-22T06:36:51;0.60;;;0.60;;
12861;SDS011;6499;66.348;14.134;2023-12-22T06:39:31;0.60;;;0.50;;
12861;SDS011;6499;66.348;14.134;2023-12-22T06:41:59;0.83;;;0.50;;
12861;SDS011;6499;66.348;14.134;2023-12-22T06:44:26;0.70;;;0.50;;
12861;SDS011;6499;66.348;14.134;2023-12-22T06:46:52;0.40;;;0.40;;
12861;SDS011;6499;66.348;14.134;2023-12-22T06:49:19;0.47;;;0.40;;
12861;SDS011;6499;66.348;14.134;2023-12-22T06:51:45;0.93;;;0.40;;
12861;SDS011;6499;66.348;14.134;2023-12-22T06:54:13;0.40;;;0.40;;
12861;SDS011;6499;66.348;14.134;2023-12-22T06:56:40;0.60;;;0.33;;
12861;SDS011;6499;66.348;14.134;2023-12-22T06:59:07;0.47;;;0.47;;
12861;SDS011;6499;66.348;14.134;2023-12-22T07:01:38;0.70;;;0.60;;
12861;SDS011;6499;66.348;14.134;2023-12-22T07:04:05;0.40;;;0.40;;
12861;SDS011;6499;66.348;14.134;2023-12-22T07:06:32;0.60;;;0.50;;
12861;SDS011;6499;66.348;14.134;2023-12-22T07:11:47;0.40;;;0.40;;
12861;SDS011;6499;66.348;14.134;2023-12-22T07:14:18;0.40;;;0.40;;
12861;SDS011;6499;66.348;14.134;2023-12-22T07:16:45;0.40;;;0.40;;
12861;SDS011;6499;66.348;14.134;2023-12-22T07:19:11;0.40;;;0.40;;
12861;SDS011;6499;66.348;14.134;2023-12-22T07:21:38;0.63;;;0.50;;
12861;SDS011;6499;66.348;14.134;2023-12-22T07:24:07;1.10;;;0.40;;
12861;SDS011;6499;66.348;14.134;2023-12-22T07:26:34;0.57;;;0.40;;
12861;SDS011;6499;66.348;14.134;2023-12-22T07:29:03;0.40;;;0.40;;
12861;SDS011;6499;66.348;14.134;2023-12-22T07:31:29;0.63;;;0.50;;
12861;SDS011;6499;66.348;14.134;2023-12-22T07:33:56;0.30;;;0.30;;
12861;SDS011;6499;66.348;14.134;2023-12-22T07:36:25;0.97;;;0.63;;
12861;SDS011;6499;66.348;14.134;2023-12-22T07:38:56;0.33;;;0.33;;
12861;SDS011;6499;66.348;14.134;2023-12-22T07:41:27;0.70;;;0.70;;
12861;SDS011;6499;66.348;14.134;2023-12-22T07:43:54;0.40;;;0.40;;
12861;SDS011;6499;66.348;14.134;2023-12-22T07:46:22;0.77;;;0.50;;
12861;SDS011;6499;66.348;14.134;2023-12-22T07:48:48;0.50;;;0.50;;
12861;SDS011;6499;66.348;14.134;2023-12-22T07:51:15;0.50;;;0.50;;
12861;SDS011;6499;66.348;14.134;2023-12-22T07:53:42;1.00;;;0.50;;
12861;SDS011;6499;66.348;14.134;2023-12-22T07:56:10;1.00;;;0.87;;
12861;SDS011;6499;66.348;14.134;2023-12-22T07:58:36;0.50;;;0.50;;
12861;SDS011;6499;66.348;14.134;2023-12-22T08:01:04;0.40;;;0.40;;
12861;SDS011;6499;66.348;14.134;2023-12-22T08:03:35;0.60;;;0.57;;
12861;SDS011;6499;66.348;14.134;2023-12-22T08:06:05;1.63;;;0.50;;
12861;SDS011;6499;66.348;14.134;2023-12-22T08:08:35;0.40;;;0.40;;
12861;SDS011;6499;66.348;14.134;2023-12-22T08:11:02;0.40;;;0.40;;
12861;SDS011;6499;66.348;14.134;2023-12-22T08:13:29;0.40;;;0.40;;
12861;SDS011;6499;66.348;14.134;2023-12-22T08:15:55;0.20;;;0.20;;
12861;SDS011;6499;66.348;14.134;2023-12-22T08:18:25;0.30;;;0.30;;
12861;SDS011;6499;66.348;14.134;2023-12-22T08:20:54;0.60;;;0.50;;
12861;SDS011;6499;66.348;14.134;2023-12-22T08:23:20;0.40;;;0.40;;
12861;SDS011;6499;66.348;14.134;2023-12-22T08:25:47;0.57;;;0.47;;
12861;SDS011;6499;66.348;14.134;2023-12-22T08:28:14;0.40;;;0.40;;
12861;SDS011;6499;66.348;14.134;2023-12-22T08:30:41;0.47;;;0.40;;
12861;SDS011;6499;66.348;14.134;2023-12-22T08:33:11;0.57;;;0.50;;
12861;SDS011;6499;66.348;14.134;2023-12-22T08:35:41;0.73;;;0.57;;
12861;SDS011;6499;66.348;14.134;2023-12-22T08:38:13;0.60;;;0.60;;
12861;SDS011;6499;66.348;14.134;2023-12-22T08:40:40;1.90;;;1.57;;
12861;SDS011;6499;66.348;14.134;2023-12-22T08:43:07;1.60;;;1.00;;
12861;SDS011;6499;66.348;14.134;2023-12-22T08:45:35;1.10;;;1.00;;
12861;SDS011;6499;66.348;14.134;2023-12-22T08:48:09;1.57;;;1.20;;
12861;SDS011;6499;66.348;14.134;2023-12-22T08:50:36;2.33;;;1.60;;
12861;SDS011;6499;66.348;14.134;2023-12-22T08:53:03;2.10;;;1.40;;
12861;SDS011;6499;66.348;14.134;2023-12-22T08:55:31;2.47;;;1.97;;
12861;SDS011;6499;66.348;14.134;2023-12-22T08:57:57;2.10;;;1.27;;
12861;SDS011;6499;66.348;14.134;2023-12-22T09:00:27;1.17;;;1.00;;
12861;SDS011;6499;66.348;14.134;2023-12-22T09:02:56;1.40;;;1.20;;
12861;SDS011;6499;66.348;14.134;2023-12-22T09:05:23;1.53;;;1.23;;
12861;SDS011;6499;66.348;14.134;2023-12-22T09:07:50;1.93;;;1.73;;
12861;SDS011;6499;66.348;14.134;2023-12-22T09:10:17;5.30;;;4.03;;
12861;SDS011;6499;66.348;14.134;2023-12-22T09:12:45;5.67;;;4.23;;
12861;SDS011;6499;66.348;14.134;2023-12-22T09:15:12;3.27;;;2.80;;
12861;SDS011;6499;66.348;14.134;2023-12-22T09:17:39;3.10;;;2.47;;
12861;SDS011;6499;66.348;14.134;2023-12-22T09:20:07;3.10;;;1.97;;
12861;SDS011;6499;66.348;14.134;2023-12-22T09:22:34;1.77;;;1.30;;
12861;SDS011;6499;66.348;14.134;2023-12-22T09:25:01;2.17;;;1.33;;
12861;SDS011;6499;66.348;14.134;2023-12-22T09:27:29;1.50;;;1.40;;
12861;SDS011;6499;66.348;14.134;2023-12-22T09:30:00;1.83;;;1.27;;
12861;SDS011;6499;66.348;14.134;2023-12-22T09:32:26;2.30;;;1.80;;
12861;SDS011;6499;66.348;14.134;2023-12-22T09:34:53;2.90;;;2.20;;
12861;SDS011;6499;66.348;14.134;2023-12-22T09:37:24;2.73;;;2.20;;
12861;SDS011;6499;66.348;14.134;2023-12-22T09:39:51;3.03;;;2.43;;
12861;SDS011;6499;66.348;14.134;2023-12-22T09:42:17;3.33;;;2.30;;
12861;SDS011;6499;66.348;14.134;2023-12-22T09:44:44;2.20;;;1.70;;
12861;SDS011;6499;66.348;14.134;2023-12-22T09:47:13;2.30;;;1.30;;
12861;SDS011;6499;66.348;14.134;2023-12-22T09:52:41;1.30;;;1.13;;
12861;SDS011;6499;66.348;14.134;2023-12-22T09:55:27;1.90;;;1.37;;
12861;SDS011;6499;66.348;14.134;2023-12-22T09:57:54;1.90;;;1.37;;
12861;SDS011;6499;66.348;14.134;2023-12-22T10:00:29;2.13;;;1.50;;
12861;SDS011;6499;66.348;14.134;2023-12-22T10:03:03;1.83;;;1.60;;
12861;SDS011;6499;66.348;14.134;2023-12-22T10:05:42;1.73;;;1.30;;
12861;SDS011;6499;66.348;14.134;2023-12-22T10:08:15;1.97;;;1.37;;
12861;SDS011;6499;66.348;14.134;2023-12-22T10:10:48;1.90;;;1.10;;
12861;SDS011;6499;66.348;14.134;2023-12-22T10:13:36;0.80;;;0.77;;
12861;SDS011;6499;66.348;14.134;2023-12-22T10:16:13;1.40;;;1.30;;
12861;SDS011;6499;66.348;14.134;2023-12-22T10:18:54;1.53;;;1.43;;
12861;SDS011;6499;66.348;14.134;2023-12-22T10:21:27;1.80;;;1.40;;
12861;SDS011;6499;66.348;14.134;2023-12-22T10:24:58;4.07;;;3.00;;
12861;SDS011;6499;66.348;14.134;2023-12-22T10:27:09;4.30;;;3.10;;
12861;SDS011;6499;66.348;14.134;2023-12-22T10:29:38;5.20;;;2.80;;
12861;SDS011;6499;66.348;14.134;2023-12-22T10:32:40;3.77;;;2.83;;
12861;SDS011;6499;66.348;14.134;2023-12-22T10:35:26;2.53;;;1.77;;
12861;SDS011;6499;66.348;14.134;2023-12-22T10:38:03;1.60;;;1.50;;
12861;SDS011;6499;66.348;14.134;2023-12-22T10:43:10;3.60;;;2.40;;
12861;SDS011;6499;66.348;14.134;2023-12-22T10:46:11;2.20;;;1.83;;
12861;SDS011;6499;66.348;14.134;2023-12-22T10:48:35;2.90;;;2.30;;
12861;SDS011;6499;66.348;14.134;2023-12-22T11:06:09;2.03;;;1.30;;
12861;SDS011;6499;66.348;14.134;2023-12-22T11:08:38;2.17;;;1.00;;
12861;SDS011;6499;66.348;14.134;2023-12-22T11:11:20;1.60;;;0.83;;
12861;SDS011;6499;66.348;14.134;2023-12-22T11:14:21;0.70;;;0.63;;
12861;SDS011;6499;66.348;14.134;2023-12-22T11:38:34;0.60;;;0.50;;
12861;SDS011;6499;66.348;14.134;2023-12-22T11:41:11;1.03;;;0.60;;
12861;SDS011;6499;66.348;14.134;2023-12-22T11:43:39;1.83;;;1.10;;
12861;SDS011;6499;66.348;14.134;2023-12-22T11:46:18;0.90;;;0.80;;
12861;SDS011;6499;66.348;14.134;2023-12-22T11:49:01;1.27;;;0.73;;
12861;SDS011;6499;66.348;14.134;2023-12-22T11:51:31;1.00;;;0.90;;
12861;SDS011;6499;66.348;14.134;2023-12-22T11:54:04;1.23;;;1.00;;
12861;SDS011;6499;66.348;14.134;2023-12-22T11:56:51;0.50;;;0.50;;
12861;SDS011;6499;66.348;14.134;2023-12-22T11:59:18;1.37;;;0.50;;
12861;SDS011;6499;66.348;14.134;2023-12-22T12:01:44;0.73;;;0.50;;
12861;SDS011;6499;66.348;14.134;2023-12-22T12:04:20;0.60;;;0.40;;
12861;SDS011;6499;66.348;14.134;2023-12-22T12:06:47;1.47;;;0.67;;
12861;SDS011;6499;66.348;14.134;2023-12-22T12:09:15;1.23;;;1.00;;
12861;SDS011;6499;66.348;14.134;2023-12-22T12:12:11;0.80;;;0.70;;
12861;SDS011;6499;66.348;14.134;2023-12-22T12:14:40;1.83;;;1.20;;
12861;SDS011;6499;66.348;14.134;2023-12-22T12:17:08;4.60;;;2.70;;
12861;SDS011;6499;66.348;14.134;2023-12-22T12:19:35;4.30;;;2.90;;
12861;SDS011;6499;66.348;14.134;2023-12-22T12:22:06;2.13;;;1.93;;
12861;SDS011;6499;66.348;14.134;2023-12-22T12:24:43;3.30;;;1.70;;
12861;SDS011;6499;66.348;14.134;2023-12-22T12:27:23;5.43;;;2.00;;
12861;SDS011;6499;66.348;14.134;2023-12-22T12:30:13;4.10;;;2.30;;
12861;SDS011;6499;66.348;14.134;2023-12-22T12:35:56;14.60;;;6.03;;
12861;SDS011;6499;66.348;14.134;2023-12-22T12:41:28;5.30;;;3.03;;
12861;SDS011;6499;66.348;14.134;2023-12-22T12:44:16;15.97;;;6.47;;
12861;SDS011;6499;66.348;14.134;2023-12-22T12:46:48;22.73;;;10.67;;
12861;SDS011;6499;66.348;14.134;2023-12-22T12:49:37;10.37;;;4.30;;
12861;SDS011;6499;66.348;14.134;2023-12-22T12:55:40;3.07;;;1.50;;
12861;SDS011;6499;66.348;14.134;2023-12-22T13:07:48;4.27;;;2.30;;
12861;SDS011;6499;66.348;14.134;2023-12-22T13:13:24;1.67;;;1.20;;
12861;SDS011;6499;66.348;14.134;2023-12-22T13:19:31;1.50;;;1.20;;
12861;SDS011;6499;66.348;14.134;2023-12-22T14:17:32;1.23;;;0.90;;
12861;SDS011;6499;66.348;14.134;2023-12-22T14:20:14;1.10;;;0.80;;
12861;SDS011;6499;66.348;14.134;2023-12-22T14:22:53;0.83;;;0.70;;
12861;SDS011;6499;66.348;14.134;2023-12-22T14:26:34;1.17;;;0.90;;
12861;SDS011;6499;66.348;14.134;2023-12-22T14:28:27;1.17;;;1.07;;
12861;SDS011;6499;66.348;14.134;2023-12-22T14:31:13;1.47;;;1.00;;
12861;SDS011;6499;66.348;14.134;2023-12-22T14:42:26;2.37;;;1.50;;
12861;SDS011;6499;66.348;14.134;2023-12-22T14:51:22;3.20;;;1.87;;
12861;SDS011;6499;66.348;14.134;2023-12-22T14:56:48;2.30;;;1.47;;
12861;SDS011;6499;66.348;14.134;2023-12-22T14:59:32;1.53;;;1.20;;
12861;SDS011;6499;66.348;14.134;2023-12-22T15:02:10;1.33;;;1.10;;
12861;SDS011;6499;66.348;14.134;2023-12-22T15:05:00;1.20;;;1.10;;
12861;SDS011;6499;66.348;14.134;2023-12-22T15:07:27;0.97;;;0.80;;
12861;SDS011;6499;66.348;14.134;2023-12-22T15:09:59;2.10;;;1.10;;
12861;SDS011;6499;66.348;14.134;2023-12-22T15:12:29;4.70;;;3.93;;
12861;SDS011;6499;66.348;14.134;2023-12-22T15:15:17;1.43;;;1.17;;
12861;SDS011;6499;66.348;14.134;2023-12-22T15:17:56;1.10;;;0.90;;
12861;SDS011;6499;66.348;14.134;2023-12-22T15:20:26;0.87;;;0.80;;
12861;SDS011;6499;66.348;14.134;2023-12-22T15:22:57;1.80;;;1.40;;
12861;SDS011;6499;66.348;14.134;2023-12-22T15:25:29;2.40;;;2.10;;
12861;SDS011;6499;66.348;14.134;2023-12-22T15:28:04;2.97;;;1.93;;
12861;SDS011;6499;66.348;14.134;2023-12-22T15:33:33;2.93;;;1.97;;
12861;SDS011;6499;66.348;14.134;2023-12-22T15:36:11;1.23;;;1.13;;
12861;SDS011;6499;66.348;14.134;2023-12-22T15:38:46;1.27;;;1.10;;
12861;SDS011;6499;66.348;14.134;2023-12-22T15:41:31;1.70;;;1.60;;
12861;SDS011;6499;66.348;14.134;2023-12-22T15:44:03;2.90;;;1.90;;
12861;SDS011;6499;66.348;14.134;2023-12-22T15:46:33;7.20;;;4.17;;
12861;SDS011;6499;66.348;14.134;2023-12-22T15:51:48;3.13;;;2.30;;
12861;SDS011;6499;66.348;14.134;2023-12-22T15:54:21;1.97;;;1.40;;
12861;SDS011;6499;66.348;14.134;2023-12-22T15:57:58;2.10;;;1.60;;
12861;SDS011;6499;66.348;14.134;2023-12-22T15:59:43;1.70;;;1.20;;
12861;SDS011;6499;66.348;14.134;2023-12-22T16:02:19;4.20;;;3.90;;
12861;SDS011;6499;66.348;14.134;2023-12-22T16:04:47;1.53;;;1.43;;
12861;SDS011;6499;66.348;14.134;2023-12-22T16:07:39;2.27;;;1.30;;
12861;SDS011;6499;66.348;14.134;2023-12-22T16:10:33;2.00;;;1.60;;
12861;SDS011;6499;66.348;14.134;2023-12-22T16:13:06;1.87;;;1.47;;
12861;SDS011;6499;66.348;14.134;2023-12-22T16:15:33;0.50;;;0.50;;
12861;SDS011;6499;66.348;14.134;2023-12-22T16:18:13;1.87;;;1.60;;
12861;SDS011;6499;66.348;14.134;2023-12-22T16:27:19;1.00;;;0.90;;
12861;SDS011;6499;66.348;14.134;2023-12-22T16:32:48;1.43;;;0.90;;
12861;SDS011;6499;66.348;14.134;2023-12-22T16:35:14;1.93;;;1.27;;
12861;SDS011;6499;66.348;14.134;2023-12-22T16:37:43;1.67;;;1.40;;
12861;SDS011;6499;66.348;14.134;2023-12-22T16:40:11;1.43;;;1.20;;
12861;SDS011;6499;66.348;14.134;2023-12-22T16:42:39;1.33;;;1.10;;
12861;SDS011;6499;66.348;14.134;2023-12-22T16:45:07;3.13;;;2.40;;
12861;SDS011;6499;66.348;14.134;2023-12-22T16:47:33;1.10;;;1.00;;
12861;SDS011;6499;66.348;14.134;2023-12-22T16:50:00;4.00;;;2.27;;
12861;SDS011;6499;66.348;14.134;2023-12-22T16:52:27;2.40;;;1.97;;
12861;SDS011;6499;66.348;14.134;2023-12-22T16:54:59;2.33;;;1.77;;
12861;SDS011;6499;66.348;14.134;2023-12-22T16:57:36;1.10;;;1.00;;
12861;SDS011;6499;66.348;14.134;2023-12-22T17:00:08;13.67;;;7.40;;
12861;SDS011;6499;66.348;14.134;2023-12-22T17:02:38;10.13;;;5.30;;
12861;SDS011;6499;66.348;14.134;2023-12-22T17:05:07;1.87;;;1.10;;
12861;SDS011;6499;66.348;14.134;2023-12-22T17:07:48;2.03;;;1.27;;
12861;SDS011;6499;66.348;14.134;2023-12-22T17:10:33;1.90;;;1.00;;
12861;SDS011;6499;66.348;14.134;2023-12-22T17:13:06;1.33;;;0.80;;
12861;SDS011;6499;66.348;14.134;2023-12-22T17:15:43;0.93;;;0.70;;
12861;SDS011;6499;66.348;14.134;2023-12-22T17:18:16;0.77;;;0.60;;
12861;SDS011;6499;66.348;14.134;2023-12-22T17:20:54;1.00;;;0.67;;
12861;SDS011;6499;66.348;14.134;2023-12-22T17:29:13;1.30;;;0.70;;
12861;SDS011;6499;66.348;14.134;2023-12-22T17:31:50;0.80;;;0.77;;
12861;SDS011;6499;66.348;14.134;2023-12-22T17:34:27;1.20;;;1.07;;
12861;SDS011;6499;66.348;14.134;2023-12-22T17:37:30;1.40;;;1.07;;
12861;SDS011;6499;66.348;14.134;2023-12-22T17:40:01;2.87;;;1.77;;
12861;SDS011;6499;66.348;14.134;2023-12-22T17:42:33;1.20;;;1.10;;
12861;SDS011;6499;66.348;14.134;2023-12-22T17:45:09;1.67;;;1.10;;
12861;SDS011;6499;66.348;14.134;2023-12-22T17:53:49;1.13;;;1.03;;
12861;SDS011;6499;66.348;14.134;2023-12-22T17:56:20;1.47;;;1.10;;
12861;SDS011;6499;66.348;14.134;2023-12-22T17:58:48;1.50;;;1.40;;
12861;SDS011;6499;66.348;14.134;2023-12-22T18:01:16;0.70;;;0.60;;